createdAt,value
2017-06-24T00:02:01.667Z,18.20
2017-06-24T00:04:29.142Z,18.20
2017-06-24T00:06:56.588Z,18.20
2017-06-24T00:09:24.041Z,18.10
2017-06-24T00:11:51.509Z,18.10
2017-06-24T00:14:18.970Z,18.00
2017-06-24T00:16:46.417Z,18.00
2017-06-24T00:19:13.874Z,18.00
2017-06-24T00:21:41.333Z,17.90
2017-06-24T00:24:08.793Z,17.80
2017-06-24T00:26:36.237Z,17.70
2017-06-24T00:29:03.701Z,17.70
2017-06-24T00:31:31.149Z,17.60
2017-06-24T00:33:58.613Z,17.60
2017-06-24T00:36:26.085Z,17.50
2017-06-24T00:38:53.532Z,17.50
2017-06-24T00:41:20.996Z,17.40
2017-06-24T00:43:48.458Z,17.40
2017-06-24T00:46:15.922Z,17.30
2017-06-24T00:48:43.382Z,17.20
2017-06-24T00:51:10.832Z,17.20
2017-06-24T00:53:38.293Z,17.20
2017-06-24T00:56:05.744Z,17.10
2017-06-24T00:58:33.242Z,17.00
2017-06-24T01:01:01.456Z,17.00
2017-06-24T01:03:28.922Z,16.90
2017-06-24T01:05:56.373Z,16.90
2017-06-24T01:08:23.828Z,16.90
2017-06-24T01:10:51.295Z,16.80
2017-06-24T01:13:18.744Z,16.90
2017-06-24T01:15:46.211Z,16.80
2017-06-24T01:18:13.669Z,16.70
2017-06-24T01:20:41.170Z,16.70
2017-06-24T01:23:08.629Z,16.70
2017-06-24T01:25:36.853Z,16.70
2017-06-24T01:28:04.324Z,16.70
2017-06-24T01:30:31.790Z,16.60
2017-06-24T01:32:59.236Z,16.50
2017-06-24T01:35:26.702Z,16.50
2017-06-24T01:37:54.168Z,16.50
2017-06-24T01:40:21.629Z,16.50
2017-06-24T01:42:49.093Z,16.50
2017-06-24T01:45:16.548Z,16.50
2017-06-24T01:47:44.010Z,16.50
2017-06-24T01:50:11.469Z,16.40
2017-06-24T01:52:38.934Z,16.30
2017-06-24T01:55:06.396Z,16.30
2017-06-24T01:57:33.865Z,16.20
2017-06-24T02:00:02.085Z,16.20
2017-06-24T02:02:29.646Z,16.20
2017-06-24T02:04:57.113Z,16.20
2017-06-24T02:07:24.581Z,16.20
2017-06-24T02:09:52.044Z,16.10
2017-06-24T02:12:19.518Z,16.10
2017-06-24T02:14:46.985Z,16.00
2017-06-24T02:17:15.217Z,16.00
2017-06-24T02:19:42.716Z,15.90
2017-06-24T02:22:10.174Z,15.80
2017-06-24T02:24:38.409Z,15.70
2017-06-24T02:27:05.877Z,15.70
2017-06-24T02:29:33.348Z,15.70
2017-06-24T02:32:00.802Z,15.70
2017-06-24T02:34:28.265Z,15.60
2017-06-24T02:36:55.797Z,15.60
2017-06-24T02:39:23.262Z,15.40
2017-06-24T02:41:50.717Z,15.40
2017-06-24T02:44:18.190Z,15.30
2017-06-24T02:46:45.652Z,15.30
2017-06-24T02:49:13.126Z,15.30
2017-06-24T02:51:40.597Z,15.20
2017-06-24T02:54:08.829Z,15.30
2017-06-24T02:56:36.296Z,15.20
2017-06-24T02:59:03.757Z,15.20
2017-06-24T03:01:31.213Z,15.20
2017-06-24T03:03:58.668Z,15.10
2017-06-24T03:06:26.133Z,15.10
2017-06-24T03:08:53.597Z,15.10
2017-06-24T03:11:21.064Z,15.10
2017-06-24T03:13:48.525Z,15.10
2017-06-24T03:16:15.997Z,15.10
2017-06-24T03:18:44.281Z,15.00
2017-06-24T03:21:12.496Z,15.00
2017-06-24T03:23:39.956Z,15.00
2017-06-24T03:26:07.417Z,15.00
2017-06-24T03:28:34.882Z,15.00
2017-06-24T03:31:02.341Z,15.00
2017-06-24T03:33:29.805Z,15.10
2017-06-24T03:35:57.292Z,15.00
2017-06-24T03:38:25.526Z,14.90
2017-06-24T03:40:52.990Z,14.90
2017-06-24T03:43:20.446Z,14.80
2017-06-24T03:45:47.904Z,14.80
2017-06-24T03:48:15.373Z,14.80
2017-06-24T03:50:42.833Z,14.80
2017-06-24T03:53:10.297Z,14.80
2017-06-24T03:55:37.762Z,14.80
2017-06-24T03:58:05.212Z,14.80
2017-06-24T04:00:32.661Z,14.80
2017-06-24T04:03:00.120Z,14.80
2017-06-24T04:05:27.585Z,14.80
2017-06-24T04:07:55.045Z,14.80
2017-06-24T04:10:22.513Z,14.80
2017-06-24T04:12:49.970Z,14.80
2017-06-24T04:15:17.429Z,14.90
2017-06-24T04:17:44.881Z,14.90
2017-06-24T04:20:12.336Z,14.90
2017-06-24T04:22:39.797Z,15.00
2017-06-24T04:25:07.316Z,15.00
2017-06-24T04:27:34.787Z,15.10
2017-06-24T04:30:02.242Z,15.10
2017-06-24T04:32:29.704Z,15.20
2017-06-24T04:34:57.161Z,15.20
2017-06-24T04:37:24.621Z,15.30
2017-06-24T04:39:52.072Z,15.40
2017-06-24T04:42:19.537Z,15.50
2017-06-24T04:44:46.999Z,15.50
2017-06-24T04:47:14.459Z,15.60
2017-06-24T04:49:41.921Z,15.70
2017-06-24T04:52:09.380Z,15.70
2017-06-24T04:54:36.840Z,15.80
2017-06-24T04:57:04.350Z,15.80
2017-06-24T04:59:31.822Z,15.80
2017-06-24T05:01:59.275Z,15.80
2017-06-24T05:04:27.956Z,15.90
2017-06-24T05:06:56.181Z,16.00
2017-06-24T05:09:23.653Z,16.00
2017-06-24T05:11:51.121Z,16.10
2017-06-24T05:14:19.351Z,16.30
2017-06-24T05:16:46.824Z,16.20
2017-06-24T05:19:14.280Z,16.20
2017-06-24T05:21:41.754Z,16.30
2017-06-24T05:24:09.221Z,16.20
2017-06-24T05:26:36.684Z,16.30
2017-06-24T05:29:04.146Z,16.40
2017-06-24T05:31:31.601Z,16.30
2017-06-24T05:33:59.061Z,16.40
2017-06-24T05:36:27.297Z,16.50
2017-06-24T05:38:54.752Z,16.50
2017-06-24T05:41:22.210Z,16.60
2017-06-24T05:43:49.678Z,16.70
2017-06-24T05:46:17.162Z,16.70
2017-06-24T05:48:44.617Z,16.80
2017-06-24T05:51:12.073Z,16.80
2017-06-24T05:53:39.540Z,16.80
2017-06-24T05:56:07.005Z,16.90
2017-06-24T05:58:34.483Z,17.00
2017-06-24T06:01:02.697Z,17.10
2017-06-24T06:03:30.160Z,17.00
2017-06-24T06:05:57.630Z,17.10
2017-06-24T06:08:25.085Z,17.10
2017-06-24T06:10:52.546Z,17.20
2017-06-24T06:13:20.002Z,17.20
2017-06-24T06:15:47.453Z,17.30
2017-06-24T06:18:15.723Z,17.30
2017-06-24T06:20:43.178Z,17.20
2017-06-24T06:23:10.642Z,17.30
2017-06-24T06:25:38.093Z,17.30
2017-06-24T06:28:05.562Z,17.50
2017-06-24T06:30:33.005Z,17.60
2017-06-24T06:33:00.466Z,17.70
2017-06-24T06:35:27.925Z,17.60
2017-06-24T06:37:55.385Z,17.60
2017-06-24T06:40:22.940Z,17.70
2017-06-24T06:42:50.382Z,17.70
2017-06-24T06:45:17.841Z,17.60
2017-06-24T06:47:45.306Z,17.70
2017-06-24T06:50:12.763Z,17.60
2017-06-24T06:52:40.216Z,17.70
2017-06-24T06:55:07.664Z,17.70
2017-06-24T06:57:35.129Z,17.70
2017-06-24T07:00:02.577Z,17.90
2017-06-24T07:02:30.041Z,18.00
2017-06-24T07:04:57.489Z,18.20
2017-06-24T07:07:24.954Z,18.20
2017-06-24T07:09:52.412Z,18.30
2017-06-24T07:12:19.912Z,18.30
2017-06-24T07:14:47.361Z,18.30
2017-06-24T07:17:14.825Z,18.30
2017-06-24T07:19:42.290Z,18.50
2017-06-24T07:22:09.752Z,18.70
2017-06-24T07:24:37.317Z,18.70
2017-06-24T07:27:04.777Z,18.80
2017-06-24T07:29:32.342Z,18.70
2017-06-24T07:31:59.811Z,18.60
2017-06-24T07:34:28.170Z,18.70
2017-06-24T07:36:55.640Z,18.80
2017-06-24T07:39:23.185Z,18.90
2017-06-24T07:41:50.659Z,19.00
2017-06-24T07:44:18.105Z,19.10
2017-06-24T07:46:45.664Z,19.10
2017-06-24T07:49:13.129Z,19.10
2017-06-24T07:51:40.590Z,19.10
2017-06-24T07:54:08.053Z,19.10
2017-06-24T07:56:35.606Z,19.20
2017-06-24T07:59:03.165Z,19.20
2017-06-24T08:01:30.682Z,19.20
2017-06-24T08:03:58.138Z,19.40
2017-06-24T08:06:25.594Z,19.50
2017-06-24T08:08:53.102Z,19.40
2017-06-24T08:11:20.562Z,19.30
2017-06-24T08:13:48.117Z,19.30
2017-06-24T08:16:15.677Z,19.20
2017-06-24T08:18:43.232Z,19.20
2017-06-24T08:21:10.712Z,19.00
2017-06-24T08:23:38.968Z,19.10
2017-06-24T08:26:06.537Z,19.00
2017-06-24T08:28:33.993Z,19.20
2017-06-24T08:31:01.549Z,19.30
2017-06-24T08:33:29.105Z,19.30
2017-06-24T08:35:56.588Z,19.20
2017-06-24T08:38:24.045Z,19.10
2017-06-24T08:40:52.312Z,19.20
2017-06-24T08:43:19.752Z,19.20
2017-06-24T08:45:47.233Z,19.30
2017-06-24T08:48:14.677Z,19.40
2017-06-24T08:50:42.493Z,19.40
2017-06-24T08:53:09.949Z,19.50
2017-06-24T08:55:37.409Z,19.40
2017-06-24T08:58:04.869Z,19.50
2017-06-24T09:00:32.347Z,19.70
2017-06-24T09:02:59.908Z,19.90
2017-06-24T09:05:27.341Z,20.00
2017-06-24T09:07:54.833Z,20.00
2017-06-24T09:10:22.292Z,20.00
2017-06-24T09:12:49.747Z,20.10
2017-06-24T09:15:17.202Z,20.20
2017-06-24T09:17:44.652Z,20.10
2017-06-24T09:20:12.108Z,20.10
2017-06-24T09:22:39.570Z,20.10
2017-06-24T09:25:07.037Z,20.20
2017-06-24T09:27:34.498Z,20.30
2017-06-24T09:30:01.966Z,20.40
2017-06-24T09:32:29.448Z,20.40
2017-06-24T09:34:56.898Z,20.50
2017-06-24T09:37:24.357Z,20.50
2017-06-24T09:39:51.817Z,20.60
2017-06-24T09:42:19.278Z,20.70
2017-06-24T09:44:46.719Z,20.70
2017-06-24T09:50:11.745Z,20.70
2017-06-24T09:52:39.205Z,20.70
2017-06-24T09:55:06.658Z,20.60
2017-06-24T09:57:34.117Z,20.60
2017-06-24T10:00:01.638Z,20.50
2017-06-24T10:02:29.085Z,20.60
2017-06-24T10:04:56.540Z,20.80
2017-06-24T10:07:24.020Z,20.90
2017-06-24T10:09:51.481Z,21.00
2017-06-24T10:12:18.929Z,21.10
2017-06-24T10:14:46.393Z,21.30
2017-06-24T10:17:13.853Z,21.50
2017-06-24T10:19:41.320Z,21.70
2017-06-24T10:22:08.768Z,21.90
2017-06-24T10:24:36.225Z,21.90
2017-06-24T10:27:03.673Z,21.80
2017-06-24T10:29:31.145Z,22.00
2017-06-24T10:31:58.641Z,21.90
2017-06-24T10:34:26.489Z,22.00
2017-06-24T10:36:53.937Z,22.20
2017-06-24T10:39:21.393Z,22.40
2017-06-24T10:41:48.841Z,22.60
2017-06-24T10:44:16.301Z,22.80
2017-06-24T10:46:43.757Z,23.00
2017-06-24T10:49:11.208Z,23.10
2017-06-24T10:51:38.665Z,23.20
2017-06-24T10:54:07.037Z,23.10
2017-06-24T10:56:34.492Z,23.30
2017-06-24T10:59:01.957Z,23.70
2017-06-24T11:01:29.414Z,24.10
2017-06-24T11:03:56.866Z,24.50
2017-06-24T11:06:24.334Z,24.90
2017-06-24T11:08:51.803Z,25.20
2017-06-24T11:11:19.240Z,25.40
2017-06-24T11:13:46.756Z,25.40
2017-06-24T11:16:14.198Z,25.30
2017-06-24T11:18:41.648Z,25.20
2017-06-24T11:21:09.113Z,25.00
2017-06-24T11:23:36.569Z,24.80
2017-06-24T11:26:04.017Z,24.70
2017-06-24T11:28:31.476Z,24.60
2017-06-24T11:30:58.936Z,24.80
2017-06-24T11:33:26.401Z,25.20
2017-06-24T11:35:53.849Z,25.00
2017-06-24T11:38:21.397Z,24.80
2017-06-24T11:40:48.845Z,24.90
2017-06-24T11:43:16.301Z,25.00
2017-06-24T11:45:43.763Z,24.90
2017-06-24T11:48:11.210Z,24.80
2017-06-24T11:50:38.665Z,25.10
2017-06-24T11:53:06.116Z,25.50
2017-06-24T11:55:33.573Z,25.90
2017-06-24T11:58:01.821Z,27.00
2017-06-24T12:00:29.281Z,26.90
2017-06-24T12:02:56.728Z,27.50
2017-06-24T12:05:24.189Z,27.50
2017-06-24T12:07:51.649Z,27.80
2017-06-24T12:10:19.110Z,28.00
2017-06-24T12:12:46.569Z,28.50
2017-06-24T12:15:14.013Z,28.60
2017-06-24T12:17:41.469Z,28.90
2017-06-24T12:20:09.005Z,29.20
2017-06-24T12:22:36.456Z,29.30
2017-06-24T12:25:03.901Z,29.20
2017-06-24T12:27:31.412Z,28.70
2017-06-24T12:29:58.877Z,27.60
2017-06-24T12:32:26.325Z,26.90
2017-06-24T12:34:53.782Z,26.20
2017-06-24T12:37:21.232Z,25.60
2017-06-24T12:39:48.693Z,25.50
2017-06-24T12:42:16.150Z,25.60
2017-06-24T12:44:43.608Z,25.60
2017-06-24T12:47:11.053Z,25.50
2017-06-24T12:49:38.512Z,25.50
2017-06-24T12:52:06.013Z,25.50
2017-06-24T12:54:34.233Z,25.40
2017-06-24T12:57:01.693Z,25.40
2017-06-24T12:59:29.165Z,25.30
2017-06-24T13:01:56.625Z,25.90
2017-06-24T13:04:24.081Z,26.90
2017-06-24T13:06:51.541Z,27.50
2017-06-24T13:09:19.083Z,27.30
2017-06-24T13:11:46.534Z,26.80
2017-06-24T13:14:13.985Z,26.30
2017-06-24T13:16:41.441Z,25.90
2017-06-24T13:19:08.909Z,25.60
2017-06-24T13:21:36.366Z,25.50
2017-06-24T13:24:03.830Z,25.80
2017-06-24T13:26:31.290Z,26.50
2017-06-24T13:28:58.732Z,27.00
2017-06-24T13:31:26.188Z,27.50
2017-06-24T13:33:53.686Z,27.50
2017-06-24T13:36:21.124Z,28.00
2017-06-24T13:38:48.577Z,28.30
2017-06-24T13:41:16.037Z,28.50
2017-06-24T13:43:43.493Z,28.20
2017-06-24T13:46:10.954Z,28.00
2017-06-24T13:48:38.423Z,28.00
2017-06-24T13:51:06.825Z,28.10
2017-06-24T13:53:34.269Z,28.60
2017-06-24T13:56:01.721Z,29.10
2017-06-24T13:58:29.179Z,28.80
2017-06-24T14:00:56.633Z,28.60
2017-06-24T14:03:24.085Z,28.60
2017-06-24T14:05:51.545Z,29.00
2017-06-24T14:08:18.997Z,29.20
2017-06-24T14:10:46.459Z,28.80
2017-06-24T14:13:13.909Z,28.20
2017-06-24T14:15:41.363Z,27.80
2017-06-24T14:18:08.817Z,27.30
2017-06-24T14:20:36.266Z,26.90
2017-06-24T14:23:03.722Z,26.70
2017-06-24T14:25:31.174Z,26.40
2017-06-24T14:27:58.633Z,26.20
2017-06-24T14:30:26.081Z,26.20
2017-06-24T14:32:54.304Z,26.30
2017-06-24T14:35:21.766Z,26.30
2017-06-24T14:37:49.225Z,26.70
2017-06-24T14:40:16.681Z,27.80
2017-06-24T14:42:44.132Z,29.00
2017-06-24T14:45:11.585Z,29.80
2017-06-24T14:47:39.085Z,29.80
2017-06-24T14:50:06.549Z,30.00
2017-06-24T14:52:33.997Z,29.80
2017-06-24T14:55:01.446Z,29.00
2017-06-24T14:57:28.902Z,28.20
2017-06-24T14:59:56.350Z,27.90
2017-06-24T15:02:23.791Z,28.10
2017-06-24T15:04:51.249Z,28.30
2017-06-24T15:07:18.709Z,28.30
2017-06-24T15:09:46.165Z,28.10
2017-06-24T15:12:13.653Z,27.80
2017-06-24T15:14:41.104Z,27.70
2017-06-24T15:17:08.557Z,27.50
2017-06-24T15:19:36.017Z,27.40
2017-06-24T15:22:03.473Z,27.10
2017-06-24T15:24:30.920Z,26.90
2017-06-24T15:26:58.381Z,26.70
2017-06-24T15:29:25.830Z,26.50
2017-06-24T15:31:53.281Z,26.30
2017-06-24T15:34:20.724Z,26.00
2017-06-24T15:36:48.504Z,25.70
2017-06-24T15:39:15.941Z,25.50
2017-06-24T15:41:43.392Z,25.50
2017-06-24T15:44:10.844Z,25.40
2017-06-24T15:46:39.073Z,25.30
2017-06-24T15:49:06.524Z,25.30
2017-06-24T15:51:33.980Z,25.30
2017-06-24T15:54:01.436Z,25.20
2017-06-24T15:56:28.889Z,25.20
2017-06-24T15:58:56.331Z,25.00
2017-06-24T16:01:23.802Z,24.90
2017-06-24T16:03:51.262Z,24.70
2017-06-24T16:06:18.717Z,24.60
2017-06-24T16:08:46.178Z,24.50
2017-06-24T16:11:13.637Z,24.60
2017-06-24T16:13:41.092Z,24.60
2017-06-24T16:16:08.550Z,24.60
2017-06-24T16:18:35.991Z,24.60
2017-06-24T16:21:03.445Z,24.60
2017-06-24T16:23:30.897Z,24.50
2017-06-24T16:25:58.408Z,24.50
2017-06-24T16:28:25.869Z,24.50
2017-06-24T16:30:53.329Z,24.50
2017-06-24T16:33:20.785Z,24.50
2017-06-24T16:35:48.239Z,24.60
2017-06-24T16:38:15.697Z,24.60
2017-06-24T16:40:43.148Z,24.60
2017-06-24T16:43:10.613Z,24.60
2017-06-24T16:45:38.058Z,24.60
2017-06-24T16:48:05.521Z,24.80
2017-06-24T16:50:32.977Z,24.90
2017-06-24T16:53:00.432Z,25.00
2017-06-24T16:55:27.886Z,25.10
2017-06-24T16:57:55.352Z,25.20
2017-06-24T17:00:22.816Z,25.20
2017-06-24T17:02:50.277Z,25.20
2017-06-24T17:05:17.759Z,25.10
2017-06-24T17:07:45.221Z,25.20
2017-06-24T17:10:12.670Z,25.20
2017-06-24T17:12:40.129Z,25.30
2017-06-24T17:15:07.580Z,25.30
2017-06-24T17:17:35.038Z,25.20
2017-06-24T17:20:02.493Z,25.20
2017-06-24T17:22:29.966Z,25.10
2017-06-24T17:24:58.198Z,24.90
2017-06-24T17:27:25.649Z,24.90
2017-06-24T17:29:53.101Z,24.80
2017-06-24T17:32:20.549Z,24.70
2017-06-24T17:34:48.020Z,24.60
2017-06-24T17:37:15.486Z,24.50
2017-06-24T17:39:43.041Z,24.40
2017-06-24T17:42:10.508Z,24.30
2017-06-24T17:44:37.970Z,24.30
2017-06-24T17:47:05.421Z,24.20
2017-06-24T17:49:32.872Z,24.20
2017-06-24T17:52:00.334Z,24.10
2017-06-24T17:54:27.793Z,24.10
2017-06-24T17:56:55.246Z,24.10
2017-06-24T17:59:22.708Z,24.20
2017-06-24T18:01:50.166Z,24.20
2017-06-24T18:04:17.622Z,24.20
2017-06-24T18:06:45.077Z,24.20
2017-06-24T18:09:12.541Z,24.10
2017-06-24T18:11:40.028Z,24.10
2017-06-24T18:14:07.476Z,24.00
2017-06-24T18:16:35.741Z,24.00
2017-06-24T18:19:03.197Z,23.90
2017-06-24T18:21:30.661Z,23.80
2017-06-24T18:23:58.126Z,23.80
2017-06-24T18:26:25.577Z,23.60
2017-06-24T18:28:53.077Z,23.60
2017-06-24T18:31:21.295Z,23.50
2017-06-24T18:33:48.758Z,23.50
2017-06-24T18:36:16.973Z,23.40
2017-06-24T18:38:44.493Z,23.40
2017-06-24T18:41:11.933Z,23.30
2017-06-24T18:43:39.394Z,23.30
2017-06-24T18:46:06.845Z,23.20
2017-06-24T18:48:34.309Z,23.20
2017-06-24T18:51:01.760Z,23.10
2017-06-24T18:53:29.225Z,23.10
2017-06-24T18:55:56.677Z,23.10
2017-06-24T18:58:24.124Z,23.00
2017-06-24T19:00:51.585Z,22.90
2017-06-24T19:03:19.170Z,22.90
2017-06-24T19:05:46.612Z,22.90
2017-06-24T19:08:14.069Z,22.90
2017-06-24T19:10:41.525Z,22.80
2017-06-24T19:13:08.981Z,22.70
2017-06-24T19:15:36.433Z,22.70
2017-06-24T19:18:03.879Z,22.60
2017-06-24T19:20:32.104Z,22.50
2017-06-24T19:22:59.550Z,22.50
2017-06-24T19:25:27.111Z,22.50
2017-06-24T19:27:54.563Z,22.50
2017-06-24T19:30:22.010Z,22.40
2017-06-24T19:32:49.465Z,22.40
2017-06-24T19:35:16.925Z,22.40
2017-06-24T19:37:44.382Z,22.40
2017-06-24T19:40:11.840Z,22.40
2017-06-24T19:42:39.288Z,22.40
2017-06-24T19:45:06.747Z,22.30
2017-06-24T19:47:34.975Z,22.30
2017-06-24T19:50:02.433Z,22.20
2017-06-24T19:52:29.893Z,22.20
2017-06-24T19:54:57.348Z,22.20
2017-06-24T19:57:24.813Z,22.10
2017-06-24T19:59:52.252Z,22.10
2017-06-24T20:02:19.718Z,22.00
2017-06-24T20:04:47.173Z,22.00
2017-06-24T20:07:14.629Z,21.90
2017-06-24T20:09:42.109Z,21.90
2017-06-24T20:12:09.565Z,21.80
2017-06-24T20:14:37.016Z,21.80
2017-06-24T20:17:04.456Z,21.70
2017-06-24T20:19:31.921Z,21.70
2017-06-24T20:21:59.386Z,21.60
2017-06-24T20:24:26.856Z,21.50
2017-06-24T20:26:54.288Z,21.40
2017-06-24T20:29:21.753Z,21.30
2017-06-24T20:31:49.204Z,21.20
2017-06-24T20:34:16.660Z,21.20
2017-06-24T20:36:44.125Z,21.10
2017-06-24T20:39:11.585Z,21.00
2017-06-24T20:41:39.048Z,21.00
2017-06-24T20:44:06.510Z,21.00
2017-06-24T20:46:33.965Z,21.00
2017-06-24T20:49:01.437Z,21.00
2017-06-24T20:51:28.901Z,20.90
2017-06-24T20:53:56.366Z,21.00
2017-06-24T20:56:23.816Z,21.00
2017-06-24T20:58:51.276Z,21.00
2017-06-24T21:01:18.769Z,21.00
2017-06-24T21:03:46.228Z,21.00
2017-06-24T21:06:13.681Z,20.90
2017-06-24T21:08:41.148Z,20.90
2017-06-24T21:11:08.598Z,20.90
2017-06-24T21:13:36.046Z,20.80
2017-06-24T21:16:04.277Z,20.70
2017-06-24T21:18:31.738Z,20.70
2017-06-24T21:20:59.184Z,20.70
2017-06-24T21:23:26.729Z,20.70
2017-06-24T21:25:54.174Z,20.70
2017-06-24T21:28:21.629Z,20.70
2017-06-24T21:30:49.085Z,20.60
2017-06-24T21:33:16.549Z,20.50
2017-06-24T21:35:43.997Z,20.50
2017-06-24T21:38:11.466Z,20.40
2017-06-24T21:40:38.921Z,20.40
2017-06-24T21:43:06.376Z,20.30
2017-06-24T21:45:33.838Z,20.30
2017-06-24T21:48:01.289Z,20.20
2017-06-24T21:50:28.745Z,20.20
2017-06-24T21:52:56.196Z,20.20
2017-06-24T21:55:23.704Z,20.20
2017-06-24T21:57:51.155Z,20.20
2017-06-24T22:00:18.619Z,20.20
2017-06-24T22:02:46.075Z,20.20
2017-06-24T22:05:13.533Z,20.20
2017-06-24T22:07:40.984Z,20.20
2017-06-24T22:10:08.445Z,20.20
2017-06-24T22:12:35.905Z,20.20
2017-06-24T22:15:03.369Z,20.20
2017-06-24T22:17:30.817Z,20.30
2017-06-24T22:19:58.265Z,20.30
2017-06-24T22:22:25.753Z,20.30
2017-06-24T22:24:53.208Z,20.30
2017-06-24T22:27:20.669Z,20.30
2017-06-24T22:29:48.129Z,20.40
2017-06-24T22:32:15.578Z,20.40
2017-06-24T22:34:43.025Z,20.40
2017-06-24T22:37:10.480Z,20.40
2017-06-24T22:39:37.953Z,20.40
2017-06-24T22:42:05.406Z,20.40
2017-06-24T22:44:32.865Z,20.50
2017-06-24T22:47:00.326Z,20.50
2017-06-24T22:49:27.775Z,20.60
2017-06-24T22:51:55.249Z,20.60
2017-06-24T22:54:22.706Z,20.60
2017-06-24T22:56:50.166Z,20.60
2017-06-24T22:59:17.608Z,20.70
2017-06-24T23:01:45.071Z,20.70
2017-06-24T23:04:12.526Z,20.70
2017-06-24T23:06:39.988Z,20.70
2017-06-24T23:09:07.440Z,20.70
2017-06-24T23:11:34.893Z,20.70
2017-06-24T23:14:02.362Z,20.70
2017-06-24T23:16:29.869Z,20.70
2017-06-24T23:18:58.084Z,20.70
2017-06-24T23:21:25.534Z,20.70
2017-06-24T23:23:53.005Z,20.70
2017-06-24T23:26:20.461Z,20.70
2017-06-24T23:28:47.924Z,20.70
2017-06-24T23:31:15.450Z,20.70
2017-06-24T23:33:43.009Z,20.70
2017-06-24T23:36:10.473Z,20.60
2017-06-24T23:38:37.915Z,20.60
2017-06-24T23:41:05.378Z,20.60
2017-06-24T23:43:32.829Z,20.60
2017-06-24T23:46:01.053Z,20.60
2017-06-24T23:48:28.492Z,20.50
2017-06-24T23:50:55.956Z,20.50
2017-06-24T23:53:23.414Z,20.50
2017-06-24T23:55:50.862Z,20.50
2017-06-24T23:58:18.327Z,20.50
